sensor_id;sensor_type;location;lat;lon;timestamp;pressure;altitude;pressure_sealevel;temperature;humidity
5814;BME280;2933;52.302;8.134;2023-04-28T00:04:49;100525.22;;;6.99;78.53
5814;BME280;2933;52.302;8.134;2023-04-28T00:09:52;100519.34;;;6.95;78.44
5814;BME280;2933;52.302;8.134;2023-04-28T00:14:56;100501.19;;;6.95;78.47
5814;BME280;2933;52.302;8.134;2023-04-28T00:19:57;100505.22;;;6.82;77.77
5814;BME280;2933;52.302;8.134;2023-04-28T00:25:00;100505.16;;;7.02;78.89
5814;BME280;2933;52.302;8.134;2023-04-28T00:30:02;100490.78;;;6.95;78.67
5814;BME280;2933;52.302;8.134;2023-04-28T00:35:05;100483.81;;;6.76;80.51
5814;BME280;2933;52.302;8.134;2023-04-28T00:40:08;100472.38;;;6.81;79.44
5814;BME280;2933;52.302;8.134;2023-04-28T00:45:10;100463.81;;;6.78;76.97
5814;BME280;2933;52.302;8.134;2023-04-28T00:50:12;100455.03;;;6.81;77.84
5814;BME280;2933;52.302;8.134;2023-04-28T00:55:15;100449.00;;;6.81;76.54
5814;BME280;2933;52.302;8.134;2023-04-28T01:00:17;100440.31;;;6.82;75.91
5814;BME280;2933;52.302;8.134;2023-04-28T01:05:19;100437.53;;;6.86;75.80
5814;BME280;2933;52.302;8.134;2023-04-28T01:10:22;100440.88;;;6.88;74.30
5814;BME280;2933;52.302;8.134;2023-04-28T01:15:23;100427.69;;;6.74;73.95
5814;BME280;2933;52.302;8.134;2023-04-28T01:20:26;100424.88;;;6.78;75.64
5814;BME280;2933;52.302;8.134;2023-04-28T01:25:29;100424.03;;;6.59;74.88
5814;BME280;2933;52.302;8.134;2023-04-28T01:30:30;100412.81;;;6.58;75.96
5814;BME280;2933;52.302;8.134;2023-04-28T01:35:32;100401.44;;;6.61;76.06
5814;BME280;2933;52.302;8.134;2023-04-28T01:40:35;100406.16;;;6.72;76.68
5814;BME280;2933;52.302;8.134;2023-04-28T01:45:36;100401.78;;;6.72;77.07
5814;BME280;2933;52.302;8.134;2023-04-28T01:50:38;100382.13;;;6.47;78.82
5814;BME280;2933;52.302;8.134;2023-04-28T01:55:41;100369.03;;;6.32;77.68
5814;BME280;2933;52.302;8.134;2023-04-28T02:00:42;100369.03;;;6.51;77.85
5814;BME280;2933;52.302;8.134;2023-04-28T02:05:44;100367.41;;;6.67;78.68
5814;BME280;2933;52.302;8.134;2023-04-28T02:10:46;100366.16;;;6.57;78.96
5814;BME280;2933;52.302;8.134;2023-04-28T02:15:48;100359.44;;;6.53;79.53
5814;BME280;2933;52.302;8.134;2023-04-28T02:20:49;100359.75;;;6.45;79.69
5814;BME280;2933;52.302;8.134;2023-04-28T02:26:00;100347.50;;;6.49;79.16
5814;BME280;2933;52.302;8.134;2023-04-28T02:31:04;100348.13;;;6.54;79.99
5814;BME280;2933;52.302;8.134;2023-04-28T02:36:06;100336.09;;;6.53;80.00
5814;BME280;2933;52.302;8.134;2023-04-28T02:41:09;100322.31;;;6.51;79.64
5814;BME280;2933;52.302;8.134;2023-04-28T02:46:11;100320.22;;;6.40;80.56
5814;BME280;2933;52.302;8.134;2023-04-28T02:51:12;100307.41;;;6.37;81.92
5814;BME280;2933;52.302;8.134;2023-04-28T02:56:15;100318.31;;;6.43;80.77
5814;BME280;2933;52.302;8.134;2023-04-28T03:01:17;100312.16;;;6.46;80.26
5814;BME280;2933;52.302;8.134;2023-04-28T03:06:18;100315.88;;;6.40;80.19
5814;BME280;2933;52.302;8.134;2023-04-28T03:11:21;100298.19;;;6.49;80.64
5814;BME280;2933;52.302;8.134;2023-04-28T03:16:23;100297.78;;;6.39;81.46
5814;BME280;2933;52.302;8.134;2023-04-28T03:21:24;100294.28;;;6.40;81.23
5814;BME280;2933;52.302;8.134;2023-04-28T03:26:28;100286.97;;;6.29;82.10
5814;BME280;2933;52.302;8.134;2023-04-28T03:31:29;100285.50;;;6.42;82.73
5814;BME280;2933;52.302;8.134;2023-04-28T03:36:31;100275.97;;;6.43;83.14
5814;BME280;2933;52.302;8.134;2023-04-28T03:41:34;100264.91;;;6.39;82.62
5814;BME280;2933;52.302;8.134;2023-04-28T03:46:35;100257.81;;;6.43;83.12
5814;BME280;2933;52.302;8.134;2023-04-28T03:51:37;100253.25;;;6.48;83.31
5814;BME280;2933;52.302;8.134;2023-04-28T03:56:40;100247.47;;;6.60;83.28
5814;BME280;2933;52.302;8.134;2023-04-28T04:01:42;100241.38;;;6.42;85.33
5814;BME280;2933;52.302;8.134;2023-04-28T04:06:43;100242.94;;;6.46;86.21
5814;BME280;2933;52.302;8.134;2023-04-28T04:11:46;100233.47;;;6.45;86.16
5814;BME280;2933;52.302;8.134;2023-04-28T04:16:48;100226.09;;;6.55;85.50
5814;BME280;2933;52.302;8.134;2023-04-28T04:21:49;100229.72;;;6.51;86.32
5814;BME280;2933;52.302;8.134;2023-04-28T04:26:52;100228.38;;;6.61;86.71
5814;BME280;2933;52.302;8.134;2023-04-28T04:31:54;100226.03;;;6.74;89.59
5814;BME280;2933;52.302;8.134;2023-04-28T04:36:55;100211.66;;;6.85;91.23
5814;BME280;2933;52.302;8.134;2023-04-28T04:41:58;100214.03;;;6.89;89.94
5814;BME280;2933;52.302;8.134;2023-04-28T04:47:00;100214.09;;;7.05;85.39
5814;BME280;2933;52.302;8.134;2023-04-28T04:52:01;100209.97;;;7.19;86.19
5814;BME280;2933;52.302;8.134;2023-04-28T04:57:04;100203.16;;;7.34;83.08
5814;BME280;2933;52.302;8.134;2023-04-28T05:02:06;100202.28;;;7.33;81.73
5814;BME280;2933;52.302;8.134;2023-04-28T05:07:08;100203.16;;;7.34;82.75
5814;BME280;2933;52.302;8.134;2023-04-28T05:12:16;100207.44;;;7.35;82.92
5814;BME280;2933;52.302;8.134;2023-04-28T05:17:21;100210.22;;;7.48;82.59
5814;BME280;2933;52.302;8.134;2023-04-28T05:22:23;100197.81;;;7.53;82.15
5814;BME280;2933;52.302;8.134;2023-04-28T05:27:27;100206.75;;;7.47;84.25
5814;BME280;2933;52.302;8.134;2023-04-28T05:32:29;100197.16;;;7.65;84.49
5814;BME280;2933;52.302;8.134;2023-04-28T05:37:30;100205.66;;;7.69;84.34
5814;BME280;2933;52.302;8.134;2023-04-28T05:42:35;100191.47;;;7.58;84.01
5814;BME280;2933;52.302;8.134;2023-04-28T05:47:40;100178.53;;;7.57;85.33
5814;BME280;2933;52.302;8.134;2023-04-28T05:52:41;100171.94;;;7.67;83.07
5814;BME280;2933;52.302;8.134;2023-04-28T05:57:44;100177.31;;;7.80;82.98
5814;BME280;2933;52.302;8.134;2023-04-28T06:02:46;100186.22;;;7.92;82.68
5814;BME280;2933;52.302;8.134;2023-04-28T06:07:47;100185.78;;;8.00;82.71
5814;BME280;2933;52.302;8.134;2023-04-28T06:12:50;100187.38;;;8.02;83.16
5814;BME280;2933;52.302;8.134;2023-04-28T06:17:52;100183.34;;;7.97;83.95
5814;BME280;2933;52.302;8.134;2023-04-28T06:22:54;100179.56;;;8.18;83.81
5814;BME280;2933;52.302;8.134;2023-04-28T06:27:56;100167.28;;;8.20;84.72
5814;BME280;2933;52.302;8.134;2023-04-28T06:32:58;100170.31;;;8.29;83.01
5814;BME280;2933;52.302;8.134;2023-04-28T06:38:00;100165.41;;;8.38;83.34
5814;BME280;2933;52.302;8.134;2023-04-28T06:43:04;100177.66;;;8.52;84.29
5814;BME280;2933;52.302;8.134;2023-04-28T06:48:05;100180.38;;;8.51;84.18
5814;BME280;2933;52.302;8.134;2023-04-28T06:53:07;100167.81;;;8.57;85.06
5814;BME280;2933;52.302;8.134;2023-04-28T06:58:10;100157.75;;;8.51;86.50
5814;BME280;2933;52.302;8.134;2023-04-28T07:03:11;100164.88;;;8.64;91.63
5814;BME280;2933;52.302;8.134;2023-04-28T07:08:13;100158.13;;;8.76;93.37
5814;BME280;2933;52.302;8.134;2023-04-28T07:13:18;100142.84;;;8.69;92.73
5814;BME280;2933;52.302;8.134;2023-04-28T07:18:19;100147.19;;;8.69;94.60
5814;BME280;2933;52.302;8.134;2023-04-28T07:23:21;100139.13;;;8.73;92.62
5814;BME280;2933;52.302;8.134;2023-04-28T07:28:24;100140.34;;;8.82;95.73
5814;BME280;2933;52.302;8.134;2023-04-28T07:33:25;100132.44;;;8.84;94.99
5814;BME280;2933;52.302;8.134;2023-04-28T07:38:27;100121.38;;;8.95;94.63
5814;BME280;2933;52.302;8.134;2023-04-28T07:43:31;100112.84;;;9.21;95.41
5814;BME280;2933;52.302;8.134;2023-04-28T07:48:32;100117.19;;;9.35;93.08
5814;BME280;2933;52.302;8.134;2023-04-28T07:53:34;100105.25;;;9.46;92.14
5814;BME280;2933;52.302;8.134;2023-04-28T07:58:37;100108.69;;;9.61;91.86
5814;BME280;2933;52.302;8.134;2023-04-28T08:03:39;100102.00;;;9.57;89.96
5814;BME280;2933;52.302;8.134;2023-04-28T08:08:40;100112.41;;;9.57;91.04
5814;BME280;2933;52.302;8.134;2023-04-28T08:13:43;100111.59;;;9.42;90.55
5814;BME280;2933;52.302;8.134;2023-04-28T08:18:46;100118.38;;;9.59;93.79
5814;BME280;2933;52.302;8.134;2023-04-28T08:23:47;100117.84;;;9.39;92.04
5814;BME280;2933;52.302;8.134;2023-04-28T08:28:50;100117.75;;;9.55;92.40
5814;BME280;2933;52.302;8.134;2023-04-28T08:33:52;100129.09;;;9.54;91.65
5814;BME280;2933;52.302;8.134;2023-04-28T08:38:53;100135.03;;;9.70;93.58
5814;BME280;2933;52.302;8.134;2023-04-28T08:43:58;100131.09;;;9.78;91.87
5814;BME280;2933;52.302;8.134;2023-04-28T08:49:00;100137.78;;;9.82;92.94
5814;BME280;2933;52.302;8.134;2023-04-28T08:54:04;100148.63;;;10.03;95.28
5814;BME280;2933;52.302;8.134;2023-04-28T08:59:10;100145.09;;;10.04;95.51
5814;BME280;2933;52.302;8.134;2023-04-28T09:04:11;100144.06;;;10.07;100.00
5814;BME280;2933;52.302;8.134;2023-04-28T09:09:23;100135.00;;;10.12;100.00
5814;BME280;2933;52.302;8.134;2023-04-28T09:14:27;100132.00;;;9.91;100.00
5814;BME280;2933;52.302;8.134;2023-04-28T09:19:32;100119.69;;;9.51;100.00
5814;BME280;2933;52.302;8.134;2023-04-28T09:24:36;100108.63;;;9.48;100.00
5814;BME280;2933;52.302;8.134;2023-04-28T09:29:51;100099.50;;;9.41;100.00
5814;BME280;2933;52.302;8.134;2023-04-28T09:34:53;100103.63;;;9.30;100.00
5814;BME280;2933;52.302;8.134;2023-04-28T09:39:57;100092.53;;;9.41;100.00
5814;BME280;2933;52.302;8.134;2023-04-28T09:45:01;100103.19;;;9.51;100.00
5814;BME280;2933;52.302;8.134;2023-04-28T09:50:03;100104.69;;;9.55;100.00
5814;BME280;2933;52.302;8.134;2023-04-28T09:55:06;100095.00;;;9.57;100.00
5814;BME280;2933;52.302;8.134;2023-04-28T10:00:10;100089.06;;;9.41;100.00
5814;BME280;2933;52.302;8.134;2023-04-28T10:05:15;100087.38;;;9.40;100.00
5814;BME280;2933;52.302;8.134;2023-04-28T10:10:17;100085.72;;;9.38;100.00
5814;BME280;2933;52.302;8.134;2023-04-28T10:15:21;100082.72;;;9.45;100.00
5814;BME280;2933;52.302;8.134;2023-04-28T10:20:23;100070.41;;;9.89;100.00
5814;BME280;2933;52.302;8.134;2023-04-28T10:25:28;100080.63;;;10.59;100.00
5814;BME280;2933;52.302;8.134;2023-04-28T10:30:32;100073.28;;;10.77;100.00
5814;BME280;2933;52.302;8.134;2023-04-28T10:35:42;100067.75;;;11.08;100.00
5814;BME280;2933;52.302;8.134;2023-04-28T10:40:45;100053.50;;;11.49;100.00
5814;BME280;2933;52.302;8.134;2023-04-28T10:46:05;100049.72;;;11.53;100.00
5814;BME280;2933;52.302;8.134;2023-04-28T10:51:28;100031.47;;;11.89;100.00
5814;BME280;2933;52.302;8.134;2023-04-28T10:56:31;100032.16;;;12.15;100.00
5814;BME280;2933;52.302;8.134;2023-04-28T11:01:34;100024.34;;;12.26;100.00
5814;BME280;2933;52.302;8.134;2023-04-28T11:06:37;100015.69;;;12.60;100.00
5814;BME280;2933;52.302;8.134;2023-04-28T11:12:03;100021.03;;;12.92;100.00
5814;BME280;2933;52.302;8.134;2023-04-28T11:17:08;100009.69;;;13.26;100.00
5814;BME280;2933;52.302;8.134;2023-04-28T11:22:13;100015.38;;;13.43;98.18
5814;BME280;2933;52.302;8.134;2023-04-28T11:27:22;100009.72;;;13.58;96.95
5814;BME280;2933;52.302;8.134;2023-04-28T11:32:30;99994.66;;;13.72;98.78
5814;BME280;2933;52.302;8.134;2023-04-28T11:37:32;100001.88;;;13.58;98.68
5814;BME280;2933;52.302;8.134;2023-04-28T11:42:33;99995.97;;;13.45;99.92
5814;BME280;2933;52.302;8.134;2023-04-28T11:47:36;99986.50;;;13.54;98.70
5814;BME280;2933;52.302;8.134;2023-04-28T11:52:47;99981.63;;;14.03;97.53
5814;BME280;2933;52.302;8.134;2023-04-28T11:57:48;99989.75;;;14.42;97.79
5814;BME280;2933;52.302;8.134;2023-04-28T12:02:51;99997.00;;;15.51;94.74
5814;BME280;2933;52.302;8.134;2023-04-28T12:07:53;99994.47;;;15.30;89.68
5814;BME280;2933;52.302;8.134;2023-04-28T12:12:54;99988.53;;;14.77;91.53
5814;BME280;2933;52.302;8.134;2023-04-28T12:18:08;99996.13;;;14.80;95.52
5814;BME280;2933;52.302;8.134;2023-04-28T12:23:10;99982.38;;;14.36;97.31
5814;BME280;2933;52.302;8.134;2023-04-28T12:28:11;99979.56;;;14.28;98.44
5814;BME280;2933;52.302;8.134;2023-04-28T12:33:25;99980.28;;;14.39;98.38
5814;BME280;2933;52.302;8.134;2023-04-28T12:38:27;99980.91;;;14.53;97.76
5814;BME280;2933;52.302;8.134;2023-04-28T12:43:28;99980.81;;;14.64;99.90
5814;BME280;2933;52.302;8.134;2023-04-28T12:48:31;99976.97;;;14.37;100.00
5814;BME280;2933;52.302;8.134;2023-04-28T12:53:34;99972.34;;;14.20;100.00
5814;BME280;2933;52.302;8.134;2023-04-28T12:58:35;99969.28;;;14.25;100.00
5814;BME280;2933;52.302;8.134;2023-04-28T13:03:38;99959.78;;;14.24;100.00
5814;BME280;2933;52.302;8.134;2023-04-28T13:08:40;99958.78;;;14.25;100.00
5814;BME280;2933;52.302;8.134;2023-04-28T13:13:42;99952.06;;;14.11;100.00
5814;BME280;2933;52.302;8.134;2023-04-28T13:18:45;99964.44;;;14.20;100.00
5814;BME280;2933;52.302;8.134;2023-04-28T13:23:48;99946.88;;;14.20;100.00
5814;BME280;2933;52.302;8.134;2023-04-28T13:28:50;99948.59;;;14.31;100.00
5814;BME280;2933;52.302;8.134;2023-04-28T13:33:53;99942.97;;;14.36;100.00
5814;BME280;2933;52.302;8.134;2023-04-28T13:38:55;99946.66;;;14.33;100.00
5814;BME280;2933;52.302;8.134;2023-04-28T13:43:56;99935.31;;;14.33;100.00
5814;BME280;2933;52.302;8.134;2023-04-28T13:48:59;99935.41;;;14.52;100.00
5814;BME280;2933;52.302;8.134;2023-04-28T13:54:01;99936.25;;;14.53;100.00
5814;BME280;2933;52.302;8.134;2023-04-28T13:59:04;99922.41;;;14.61;100.00
5814;BME280;2933;52.302;8.134;2023-04-28T14:04:07;99928.06;;;14.46;100.00
5814;BME280;2933;52.302;8.134;2023-04-28T14:09:09;99931.25;;;14.50;100.00
5814;BME280;2933;52.302;8.134;2023-04-28T14:14:11;99924.03;;;14.42;100.00
5814;BME280;2933;52.302;8.134;2023-04-28T14:19:14;99915.09;;;14.24;100.00
5814;BME280;2933;52.302;8.134;2023-04-28T14:24:17;99915.16;;;14.12;100.00
5814;BME280;2933;52.302;8.134;2023-04-28T14:29:19;99911.00;;;14.00;100.00
5814;BME280;2933;52.302;8.134;2023-04-28T14:34:22;99911.53;;;13.82;100.00
5814;BME280;2933;52.302;8.134;2023-04-28T14:39:23;99905.72;;;13.79;100.00
5814;BME280;2933;52.302;8.134;2023-04-28T14:44:25;99898.19;;;13.85;100.00
5814;BME280;2933;52.302;8.134;2023-04-28T14:49:28;99902.03;;;13.81;100.00
5814;BME280;2933;52.302;8.134;2023-04-28T14:54:29;99898.84;;;13.78;100.00
5814;BME280;2933;52.302;8.134;2023-04-28T14:59:31;99897.47;;;13.83;100.00
5814;BME280;2933;52.302;8.134;2023-04-28T15:04:34;99891.63;;;13.80;100.00
5814;BME280;2933;52.302;8.134;2023-04-28T15:09:36;99900.09;;;13.62;100.00
5814;BME280;2933;52.302;8.134;2023-04-28T15:14:38;99893.09;;;13.51;100.00
5814;BME280;2933;52.302;8.134;2023-04-28T15:19:41;99890.16;;;13.45;100.00
5814;BME280;2933;52.302;8.134;2023-04-28T15:24:42;99882.59;;;13.51;100.00
5814;BME280;2933;52.302;8.134;2023-04-28T15:29:44;99877.13;;;13.54;100.00
5814;BME280;2933;52.302;8.134;2023-04-28T15:34:47;99883.19;;;13.55;100.00
5814;BME280;2933;52.302;8.134;2023-04-28T15:39:48;99886.91;;;13.52;100.00
5814;BME280;2933;52.302;8.134;2023-04-28T15:44:50;99884.41;;;13.51;100.00
5814;BME280;2933;52.302;8.134;2023-04-28T15:49:53;99877.91;;;13.45;100.00
5814;BME280;2933;52.302;8.134;2023-04-28T15:54:54;99867.72;;;13.52;100.00
5814;BME280;2933;52.302;8.134;2023-04-28T15:59:56;99886.53;;;13.57;100.00
5814;BME280;2933;52.302;8.134;2023-04-28T16:04:59;99876.53;;;13.51;100.00
5814;BME280;2933;52.302;8.134;2023-04-28T16:10:01;99871.34;;;13.39;100.00
5814;BME280;2933;52.302;8.134;2023-04-28T16:15:03;99865.97;;;13.41;100.00
5814;BME280;2933;52.302;8.134;2023-04-28T16:20:08;99866.94;;;13.29;100.00
5814;BME280;2933;52.302;8.134;2023-04-28T16:25:10;99863.81;;;13.35;100.00
5814;BME280;2933;52.302;8.134;2023-04-28T16:30:12;99871.50;;;13.38;100.00
5814;BME280;2933;52.302;8.134;2023-04-28T16:35:15;99861.69;;;13.40;100.00
5814;BME280;2933;52.302;8.134;2023-04-28T16:40:17;99860.72;;;13.41;100.00
5814;BME280;2933;52.302;8.134;2023-04-28T16:45:18;99856.44;;;13.40;100.00
5814;BME280;2933;52.302;8.134;2023-04-28T16:50:21;99864.31;;;13.40;100.00
5814;BME280;2933;52.302;8.134;2023-04-28T16:55:22;99864.78;;;13.34;100.00
5814;BME280;2933;52.302;8.134;2023-04-28T17:00:24;99877.41;;;13.40;100.00
5814;BME280;2933;52.302;8.134;2023-04-28T17:05:27;99881.59;;;13.31;100.00
5814;BME280;2933;52.302;8.134;2023-04-28T17:10:29;99875.97;;;13.36;100.00
5814;BME280;2933;52.302;8.134;2023-04-28T17:15:31;99872.91;;;13.31;100.00
5814;BME280;2933;52.302;8.134;2023-04-28T17:20:34;99873.34;;;13.15;100.00
5814;BME280;2933;52.302;8.134;2023-04-28T17:25:37;99872.28;;;13.06;100.00
5814;BME280;2933;52.302;8.134;2023-04-28T17:30:52;99869.44;;;12.98;100.00
5814;BME280;2933;52.302;8.134;2023-04-28T17:36:05;99886.72;;;13.00;100.00
5814;BME280;2933;52.302;8.134;2023-04-28T17:41:06;99879.34;;;12.94;100.00
5814;BME280;2933;52.302;8.134;2023-04-28T17:46:08;99905.25;;;12.87;100.00
5814;BME280;2933;52.302;8.134;2023-04-28T17:51:12;99895.84;;;12.85;100.00
5814;BME280;2933;52.302;8.134;2023-04-28T17:56:13;99895.59;;;12.76;100.00
5814;BME280;2933;52.302;8.134;2023-04-28T18:01:15;99898.94;;;12.79;100.00
5814;BME280;2933;52.302;8.134;2023-04-28T18:06:18;99898.00;;;12.80;100.00
5814;BME280;2933;52.302;8.134;2023-04-28T18:11:21;99911.22;;;12.78;100.00
5814;BME280;2933;52.302;8.134;2023-04-28T18:16:23;99909.78;;;12.74;100.00
5814;BME280;2933;52.302;8.134;2023-04-28T18:21:26;99910.03;;;12.71;100.00
5814;BME280;2933;52.302;8.134;2023-04-28T18:26:28;99911.22;;;12.67;100.00
5814;BME280;2933;52.302;8.134;2023-04-28T18:31:30;99911.94;;;12.57;100.00
5814;BME280;2933;52.302;8.134;2023-04-28T18:36:34;99913.25;;;12.52;100.00
5814;BME280;2933;52.302;8.134;2023-04-28T18:41:35;99907.78;;;12.55;100.00
5814;BME280;2933;52.302;8.134;2023-04-28T18:46:38;99925.88;;;12.58;100.00
5814;BME280;2933;52.302;8.134;2023-04-28T18:51:41;99914.56;;;12.57;100.00
5814;BME280;2933;52.302;8.134;2023-04-28T18:56:43;99922.19;;;12.49;100.00
5814;BME280;2933;52.302;8.134;2023-04-28T19:01:46;99914.22;;;12.51;100.00
5814;BME280;2933;52.302;8.134;2023-04-28T19:06:49;99925.19;;;12.56;100.00
5814;BME280;2933;52.302;8.134;2023-04-28T19:11:51;99927.69;;;12.46;100.00
5814;BME280;2933;52.302;8.134;2023-04-28T19:16:52;99936.84;;;12.40;100.00
5814;BME280;2933;52.302;8.134;2023-04-28T19:21:55;99938.84;;;12.37;100.00
5814;BME280;2933;52.302;8.134;2023-04-28T19:26:57;99939.94;;;12.34;100.00
5814;BME280;2933;52.302;8.134;2023-04-28T19:32:00;99951.72;;;12.40;100.00
5814;BME280;2933;52.302;8.134;2023-04-28T19:37:03;99960.41;;;12.40;100.00
5814;BME280;2933;52.302;8.134;2023-04-28T19:42:09;99961.13;;;12.31;100.00
5814;BME280;2933;52.302;8.134;2023-04-28T19:47:10;99969.00;;;12.31;100.00
5814;BME280;2933;52.302;8.134;2023-04-28T19:52:13;99966.84;;;12.25;100.00
5814;BME280;2933;52.302;8.134;2023-04-28T19:57:15;99968.38;;;12.27;100.00
5814;BME280;2933;52.302;8.134;2023-04-28T20:02:17;99964.81;;;12.17;100.00
5814;BME280;2933;52.302;8.134;2023-04-28T20:07:21;99970.38;;;12.12;100.00
5814;BME280;2933;52.302;8.134;2023-04-28T20:12:23;99968.34;;;12.05;100.00
5814;BME280;2933;52.302;8.134;2023-04-28T20:17:24;99981.78;;;12.00;100.00
5814;BME280;2933;52.302;8.134;2023-04-28T20:22:27;99983.16;;;11.93;100.00
5814;BME280;2933;52.302;8.134;2023-04-28T20:27:29;99982.84;;;11.98;100.00
5814;BME280;2933;52.302;8.134;2023-04-28T20:32:30;99989.63;;;12.00;100.00
5814;BME280;2933;52.302;8.134;2023-04-28T20:37:33;99982.31;;;11.81;100.00
5814;BME280;2933;52.302;8.134;2023-04-28T20:42:35;99981.13;;;11.85;100.00
5814;BME280;2933;52.302;8.134;2023-04-28T20:47:36;99990.53;;;11.88;100.00
5814;BME280;2933;52.302;8.134;2023-04-28T20:52:39;99980.88;;;11.88;100.00
5814;BME280;2933;52.302;8.134;2023-04-28T20:57:41;99983.13;;;11.82;100.00
5814;BME280;2933;52.302;8.134;2023-04-28T21:02:42;99989.19;;;11.82;100.00
5814;BME280;2933;52.302;8.134;2023-04-28T21:07:45;99982.53;;;11.78;100.00
5814;BME280;2933;52.302;8.134;2023-04-28T21:12:47;99994.66;;;11.79;100.00
5814;BME280;2933;52.302;8.134;2023-04-28T21:17:48;99981.19;;;11.72;100.00
5814;BME280;2933;52.302;8.134;2023-04-28T21:22:52;99983.69;;;11.74;100.00
5814;BME280;2933;52.302;8.134;2023-04-28T21:27:53;99997.16;;;11.80;100.00
5814;BME280;2933;52.302;8.134;2023-04-28T21:32:55;100001.78;;;11.77;100.00
5814;BME280;2933;52.302;8.134;2023-04-28T21:37:58;100005.41;;;11.39;100.00
5814;BME280;2933;52.302;8.134;2023-04-28T21:42:59;100011.75;;;11.23;100.00
5814;BME280;2933;52.302;8.134;2023-04-28T21:48:01;100007.56;;;11.21;100.00
5814;BME280;2933;52.302;8.134;2023-04-28T21:53:04;100012.97;;;11.30;100.00
5814;BME280;2933;52.302;8.134;2023-04-28T21:58:05;100026.06;;;11.18;100.00
5814;BME280;2933;52.302;8.134;2023-04-28T22:03:07;100039.50;;;11.13;100.00
5814;BME280;2933;52.302;8.134;2023-04-28T22:08:10;100035.19;;;11.12;100.00
5814;BME280;2933;52.302;8.134;2023-04-28T22:13:12;100029.13;;;11.11;100.00
5814;BME280;2933;52.302;8.134;2023-04-28T22:18:14;100041.25;;;11.12;100.00
5814;BME280;2933;52.302;8.134;2023-04-28T22:23:17;100048.59;;;11.07;100.00
5814;BME280;2933;52.302;8.134;2023-04-28T22:28:19;100045.69;;;10.99;100.00
5814;BME280;2933;52.302;8.134;2023-04-28T22:33:22;100042.97;;;11.01;100.00
5814;BME280;2933;52.302;8.134;2023-04-28T22:38:25;100054.78;;;10.93;100.00
5814;BME280;2933;52.302;8.134;2023-04-28T22:43:26;100065.22;;;10.93;100.00
5814;BME280;2933;52.302;8.134;2023-04-28T22:48:28;100056.88;;;10.88;100.00
5814;BME280;2933;52.302;8.134;2023-04-28T22:53:31;100055.94;;;10.89;100.00
5814;BME280;2933;52.302;8.134;2023-04-28T22:58:33;100058.25;;;10.81;100.00
5814;BME280;2933;52.302;8.134;2023-04-28T23:03:34;100059.47;;;10.75;100.00
5814;BME280;2933;52.302;8.134;2023-04-28T23:08:38;100056.69;;;10.78;100.00
5814;BME280;2933;52.302;8.134;2023-04-28T23:13:40;100057.84;;;10.74;100.00
5814;BME280;2933;52.302;8.134;2023-04-28T23:18:42;100058.88;;;10.72;100.00
5814;BME280;2933;52.302;8.134;2023-04-28T23:23:45;100061.06;;;10.65;100.00
5814;BME280;2933;52.302;8.134;2023-04-28T23:28:46;100060.44;;;10.61;100.00
5814;BME280;2933;52.302;8.134;2023-04-28T23:33:48;100060.75;;;10.70;100.00
5814;BME280;2933;52.302;8.134;2023-04-28T23:38:51;100069.63;;;10.67;100.00
5814;BME280;2933;52.302;8.134;2023-04-28T23:43:53;100075.47;;;10.58;100.00
5814;BME280;2933;52.302;8.134;2023-04-28T23:48:54;100069.63;;;10.54;100.00
5814;BME280;2933;52.302;8.134;2023-04-28T23:53:57;100076.75;;;10.52;100.00
5814;BME280;2933;52.302;8.134;2023-04-28T23:59:00;100078.41;;;10.53;100.00
